Junction City, KS

2:49 PM CDT on June 30, 2015 (GMT -0500)
Indian Ridge | | Change Station
CLOSE
Current Station
Personal Weather Station
Location: Junction City, KS
Elevation: 1227 ft
Nearby Weather Stations

Elev 1227 ft 39.02 °N, 96.87 °W | Updated 7 minutes ago

Clear
Clear
100.4 °F
Feels Like 99 °F
N
10.9
Wind Variable Wind from South

Today
High -- | Low -- °F
--% Chance of Precip.
Yesterday
High -- | Low -- °F
Precip. -- in
6:04 AM 8:57 PM
Waxing Gibbous, 98% visible
Pressure 29.87 in
Visibility 10.0 miles
Clouds Few 10000 ft
Heat Index 99 °F
Dew Point 55 °F
Humidity 22%
Rainfall 0.00 in
Snow Depth Not available.
UV 11 out of 12
Pollen 5.00 out of 12
Air Quality Not available.
Flu Activity No Activity
METAR KFRI 301858Z AUTO VRB05KT 10SM FEW100 35/14 A2990 RMK AO2 SLP113 T03500139

More Conditions Fewer Conditions

Pressure 29.87 in
Visibility 10.0 miles
Clouds Few 10000 ft
Heat Index 99 °F
Dew Point 55 °F
Humidity 22%
Rainfall 0.00 in
Snow Depth Not available.
UV 11 out of 12
Pollen 5.00 out of 12
Air Quality Not available.
Flu Activity No Activity
METAR KFRI 301858Z AUTO VRB05KT 10SM FEW100 35/14 A2990 RMK AO2 SLP113 T03500139

More Conditions Fewer Conditions

10-Day Weather Forecast

×

Almanac

Astronomy

Jun. 30, 2015 Rise Set
Actual Time
Civil Twilight
Nautical Twilight
Astronomical Twilight
Moon
Length of Visible Light
Length of Day
Tomorrow will be .
, % of the Moon is Illuminated

Today's Extremes

State Highs State Lows

Community

WunderPhotos

Upload Photos

1,834,067 photos uploaded!

WunderBlogs® & News

Nearby

Air Quality

  Air Quality AQ Index Pollutant
Not available.

Snow Depth

Station Depth Elevation

Earthquake Activity

City Distance Mag. Time & Date
Minimum magnitude displayed is 2.5.

Coastal Water Temperatures

Place Temperature

Stations

Nearby Weather Stations

Station Location Temp. Windchill Dew Point Humidity Wind Precip. Elev Updated Type